createdAt,value
2023-05-22T04:00:46.181Z,99.99
2023-05-22T04:01:47.176Z,99.99
2023-05-22T04:02:47.218Z,99.99
2023-05-22T04:03:47.142Z,99.99
2023-05-22T04:04:47.190Z,99.99
2023-05-22T04:05:47.120Z,99.99
2023-05-22T04:06:47.158Z,99.99
2023-05-22T04:07:47.133Z,99.99
2023-05-22T04:08:47.130Z,99.99
2023-05-22T04:09:47.073Z,99.99
2023-05-22T04:10:47.063Z,99.99
2023-05-22T04:11:47.049Z,99.99
2023-05-22T04:12:47.055Z,99.99
2023-05-22T04:13:47.026Z,99.99
2023-05-22T04:14:47.019Z,99.99
2023-05-22T04:15:47.183Z,99.99
2023-05-22T04:16:49.030Z,99.99
2023-05-22T04:17:47.028Z,99.99
2023-05-22T04:18:47.046Z,99.99
2023-05-22T04:19:46.962Z,99.99
2023-05-22T04:20:46.981Z,99.99
2023-05-22T04:21:46.930Z,99.99
2023-05-22T04:22:46.934Z,99.99
2023-05-22T04:23:46.927Z,99.99
2023-05-22T04:24:46.918Z,99.99
2023-05-22T04:25:46.913Z,99.99
2023-05-22T04:26:46.891Z,99.99
2023-05-22T04:27:46.878Z,99.99
2023-05-22T04:28:46.875Z,99.99
2023-05-22T04:29:46.863Z,99.99
2023-05-22T04:30:46.906Z,99.99
2023-05-22T04:31:46.836Z,99.99
2023-05-22T04:32:46.890Z,99.99
2023-05-22T04:33:46.817Z,99.99
2023-05-22T04:34:46.817Z,99.99
2023-05-22T04:35:46.795Z,99.99
2023-05-22T04:36:46.787Z,99.99
2023-05-22T04:37:46.778Z,99.99
2023-05-22T04:38:46.791Z,99.99
2023-05-22T04:39:46.747Z,99.99
2023-05-22T04:40:46.768Z,99.99
2023-05-22T04:41:46.731Z,99.99
2023-05-22T04:42:46.723Z,99.99
2023-05-22T04:43:46.706Z,99.99
2023-05-22T04:44:46.702Z,99.99
2023-05-22T04:45:46.690Z,99.99
2023-05-22T04:46:46.732Z,99.99
2023-05-22T04:47:46.740Z,99.99
2023-05-22T04:48:46.658Z,99.99
2023-05-22T04:49:46.660Z,99.99
2023-05-22T04:50:46.660Z,99.99
2023-05-22T04:51:46.627Z,99.99
2023-05-22T04:52:46.616Z,99.99
2023-05-22T04:53:46.596Z,99.99
2023-05-22T04:54:46.620Z,99.99
2023-05-22T04:55:46.581Z,99.99
2023-05-22T04:56:46.572Z,99.99
2023-05-22T04:57:46.566Z,99.99
2023-05-22T04:58:46.549Z,99.99
2023-05-22T04:59:46.548Z,99.99
2023-05-22T05:00:46.527Z,99.99
2023-05-22T05:01:46.578Z,99.99
2023-05-22T05:02:46.574Z,99.99
2023-05-22T05:03:46.558Z,99.99
2023-05-22T05:04:46.488Z,99.99
2023-05-22T05:05:46.466Z,99.99
2023-05-22T05:06:46.476Z,99.99
2023-05-22T05:07:49.144Z,99.99
2023-05-22T05:08:46.457Z,99.99
2023-05-22T05:09:46.435Z,99.99
2023-05-22T05:10:46.412Z,99.99
2023-05-22T05:11:46.414Z,99.99
2023-05-22T05:12:46.409Z,99.99
2023-05-22T05:13:46.398Z,99.99
2023-05-22T05:14:46.369Z,99.99
2023-05-22T05:15:46.358Z,99.99
2023-05-22T05:16:46.395Z,99.99
2023-05-22T05:17:46.365Z,99.99
2023-05-22T05:18:46.412Z,99.99
2023-05-22T05:19:46.319Z,99.99
2023-05-22T05:20:46.304Z,99.99
2023-05-22T05:21:46.293Z,99.99
2023-05-22T05:22:46.312Z,99.99
2023-05-22T05:23:46.293Z,99.99
2023-05-22T05:24:46.262Z,99.99
2023-05-22T05:25:46.250Z,99.99
2023-05-22T05:26:46.243Z,99.99
2023-05-22T05:27:46.236Z,99.99
2023-05-22T05:28:46.220Z,99.99
2023-05-22T05:29:46.205Z,99.99
2023-05-22T05:30:46.213Z,99.99
2023-05-22T05:31:46.202Z,99.99
2023-05-22T05:32:46.201Z,99.99
2023-05-22T05:33:46.159Z,99.99
2023-05-22T05:34:46.177Z,99.99
2023-05-22T05:35:46.164Z,99.99
2023-05-22T05:36:46.147Z,99.99
2023-05-22T05:37:46.130Z,99.99
2023-05-22T05:38:46.116Z,99.99
2023-05-22T05:39:46.099Z,99.99
2023-05-22T05:40:46.092Z,99.99
2023-05-22T05:41:46.096Z,99.99
2023-05-22T05:42:46.071Z,99.99
2023-05-22T05:43:46.054Z,99.99
2023-05-22T05:44:46.081Z,99.99
2023-05-22T05:45:46.061Z,99.99
2023-05-22T05:46:46.022Z,99.99
2023-05-22T05:47:46.060Z,99.99
2023-05-22T05:48:46.027Z,99.99
2023-05-22T05:49:45.989Z,99.99
2023-05-22T05:50:46.023Z,99.99
2023-05-22T05:51:45.999Z,99.99
2023-05-22T05:52:45.960Z,99.99
2023-05-22T05:53:45.953Z,99.99
2023-05-22T05:54:45.938Z,99.99
2023-05-22T05:55:45.937Z,99.99
2023-05-22T05:56:45.931Z,99.99
2023-05-22T05:57:45.922Z,99.99
2023-05-22T05:58:45.896Z,99.99
2023-05-22T05:59:45.918Z,99.99
2023-05-22T06:00:45.895Z,99.99
2023-05-22T06:01:45.906Z,99.99
2023-05-22T06:02:47.075Z,99.99
2023-05-22T06:03:46.055Z,99.99
2023-05-22T06:04:45.859Z,99.99
2023-05-22T06:05:45.885Z,99.99
2023-05-22T06:06:45.805Z,99.99
2023-05-22T06:07:45.794Z,99.99
2023-05-22T06:08:45.809Z,99.99
2023-05-22T06:09:45.788Z,99.99
2023-05-22T06:10:45.762Z,99.99
2023-05-22T06:11:45.761Z,99.99
2023-05-22T06:12:45.758Z,99.99
2023-05-22T06:13:45.728Z,99.99
2023-05-22T06:14:45.735Z,99.99
2023-05-22T06:15:45.727Z,99.99
2023-05-22T06:16:45.781Z,99.99
2023-05-22T06:17:45.701Z,99.99
2023-05-22T06:18:45.701Z,99.99
2023-05-22T06:19:45.675Z,99.99
2023-05-22T06:20:45.653Z,99.99
2023-05-22T06:21:45.638Z,99.99
2023-05-22T06:22:45.637Z,99.99
2023-05-22T06:23:45.634Z,99.99
2023-05-22T06:24:45.612Z,99.99
2023-05-22T06:25:45.611Z,99.99
2023-05-22T06:26:45.591Z,99.99
2023-05-22T06:27:45.571Z,99.99
2023-05-22T06:28:45.653Z,99.99
2023-05-22T06:29:45.555Z,99.99
2023-05-22T06:30:45.717Z,99.99
2023-05-22T06:31:45.660Z,99.99
2023-05-22T06:32:45.664Z,99.99
2023-05-22T06:33:45.712Z,99.99
2023-05-22T06:34:45.516Z,99.99
2023-05-22T06:35:45.502Z,99.99
2023-05-22T06:36:45.482Z,99.99
2023-05-22T06:37:45.487Z,99.99
2023-05-22T06:38:45.465Z,99.99
2023-05-22T06:39:45.472Z,99.99
2023-05-22T06:40:45.439Z,99.99
2023-05-22T06:41:45.422Z,99.99
2023-05-22T06:42:45.435Z,99.99
2023-05-22T06:43:45.399Z,99.99
2023-05-22T06:44:45.393Z,99.99
2023-05-22T06:45:45.443Z,99.99
2023-05-22T06:46:45.390Z,99.99
2023-05-22T06:47:45.424Z,99.99
2023-05-22T06:48:45.347Z,99.99
2023-05-22T06:49:45.340Z,99.99
2023-05-22T06:50:45.345Z,99.99
2023-05-22T06:51:45.335Z,99.99
2023-05-22T06:52:45.316Z,99.99
2023-05-22T06:53:45.291Z,99.99
2023-05-22T06:54:45.290Z,99.99
2023-05-22T06:55:45.285Z,99.99
2023-05-22T06:56:45.271Z,99.99
2023-05-22T06:57:45.249Z,99.99
2023-05-22T06:58:45.243Z,99.99
2023-05-22T06:59:45.237Z,99.99
2023-05-22T07:00:45.230Z,99.99
2023-05-22T07:01:45.344Z,99.99
2023-05-22T07:02:45.244Z,99.99
2023-05-22T07:03:45.182Z,99.99
2023-05-22T07:04:45.181Z,99.99
2023-05-22T07:05:45.200Z,99.99
2023-05-22T07:06:45.161Z,99.99
2023-05-22T07:07:45.159Z,99.99
2023-05-22T07:08:45.142Z,99.99
2023-05-22T07:09:45.184Z,99.99
2023-05-22T07:10:45.282Z,99.99
2023-05-22T07:11:45.112Z,99.99
2023-05-22T07:12:45.123Z,99.99
2023-05-22T07:13:45.083Z,99.99
2023-05-22T07:14:45.070Z,99.99
2023-05-22T07:15:46.473Z,99.99
2023-05-22T07:16:45.133Z,99.99
2023-05-22T07:17:45.091Z,99.41
2023-05-22T07:18:45.076Z,99.99
2023-05-22T07:19:45.149Z,99.99
2023-05-22T07:20:45.049Z,99.99
2023-05-22T07:21:45.006Z,99.21
2023-05-22T07:22:44.984Z,99.99
2023-05-22T07:23:44.978Z,99.99
2023-05-22T07:24:44.985Z,99.99
2023-05-22T07:25:44.946Z,99.99
2023-05-22T07:26:44.943Z,99.99
2023-05-22T07:27:44.926Z,99.99
2023-05-22T07:28:44.928Z,98.77
2023-05-22T07:29:44.921Z,96.76
2023-05-22T07:30:44.924Z,99.99
2023-05-22T07:31:44.941Z,97.36
2023-05-22T07:32:44.909Z,98.46
2023-05-22T07:33:44.897Z,97.96
2023-05-22T07:34:44.881Z,97.16
2023-05-22T07:35:44.844Z,99.37
2023-05-22T07:36:44.843Z,99.52
2023-05-22T07:37:44.845Z,94.60
2023-05-22T07:38:44.833Z,99.92
2023-05-22T07:39:44.817Z,99.99
2023-05-22T07:40:44.796Z,99.99
2023-05-22T07:41:44.781Z,98.48
2023-05-22T07:42:44.784Z,99.33
2023-05-22T07:43:44.779Z,96.63
2023-05-22T07:44:44.754Z,95.43
2023-05-22T07:45:44.825Z,94.93
2023-05-22T07:46:44.744Z,94.67
2023-05-22T07:47:44.811Z,93.51
2023-05-22T07:48:44.711Z,94.31
2023-05-22T07:49:44.711Z,99.13
2023-05-22T07:50:44.736Z,94.06
2023-05-22T07:51:44.677Z,94.60
2023-05-22T07:52:44.701Z,95.21
2023-05-22T07:53:44.668Z,93.20
2023-05-22T07:54:45.604Z,94.31
2023-05-22T07:55:44.629Z,94.31
2023-05-22T07:56:44.626Z,91.39
2023-05-22T07:57:44.652Z,91.65
2023-05-22T07:58:44.626Z,90.49
2023-05-22T07:59:44.583Z,88.83
2023-05-22T08:00:44.578Z,89.53
2023-05-22T08:01:44.561Z,93.90
2023-05-22T08:02:45.090Z,93.10
2023-05-22T08:03:44.779Z,94.00
2023-05-22T08:04:44.593Z,90.75
2023-05-22T08:05:44.531Z,90.55
2023-05-22T08:06:44.535Z,91.75
2023-05-22T08:07:44.518Z,92.15
2023-05-22T08:08:44.511Z,93.26
2023-05-22T08:09:44.488Z,92.15
2023-05-22T08:10:58.259Z,95.01
2023-05-22T08:11:44.457Z,93.05
2023-05-22T08:12:44.447Z,91.31
2023-05-22T08:13:44.454Z,96.77
2023-05-22T08:14:44.424Z,95.17
2023-05-22T08:15:44.407Z,91.42
2023-05-22T08:16:44.471Z,91.42
2023-05-22T08:17:44.421Z,90.46
2023-05-22T08:18:44.443Z,92.12
2023-05-22T08:19:44.411Z,91.72
2023-05-22T08:20:44.389Z,91.22
2023-05-22T08:21:44.347Z,92.38
2023-05-22T08:22:44.355Z,89.02
2023-05-22T08:23:44.343Z,89.92
2023-05-22T08:24:44.317Z,86.25
2023-05-22T08:25:44.295Z,90.86
2023-05-22T08:26:44.305Z,88.16
2023-05-22T08:27:44.274Z,91.77
2023-05-22T08:28:44.295Z,92.58
2023-05-22T08:29:44.264Z,92.43
2023-05-22T08:30:44.278Z,91.09
2023-05-22T08:31:44.343Z,85.43
2023-05-22T08:32:44.332Z,87.27
2023-05-22T08:33:44.211Z,86.91
2023-05-22T08:34:44.205Z,87.36
2023-05-22T08:35:44.248Z,89.42
2023-05-22T08:36:44.176Z,88.68
2023-05-22T08:37:44.167Z,87.02
2023-05-22T08:38:44.156Z,87.68
2023-05-22T08:39:44.155Z,87.34
2023-05-22T08:40:46.199Z,87.07
2023-05-22T08:41:44.122Z,88.68
2023-05-22T08:42:44.114Z,90.94
2023-05-22T08:43:44.213Z,84.79
2023-05-22T08:44:44.124Z,88.89
2023-05-22T08:45:44.111Z,85.15
2023-05-22T08:46:44.140Z,82.93
2023-05-22T08:47:44.135Z,84.03
2023-05-22T08:48:44.039Z,84.97
2023-05-22T08:49:44.050Z,88.64
2023-05-22T08:50:44.043Z,85.83
2023-05-22T08:51:44.013Z,85.69
2023-05-22T08:52:43.992Z,86.59
2023-05-22T08:53:43.994Z,85.39
2023-05-22T08:54:43.994Z,85.85
2023-05-22T08:55:44.007Z,87.15
2023-05-22T08:56:55.620Z,85.19
2023-05-22T08:57:43.943Z,86.89
2023-05-22T08:58:43.929Z,87.55
2023-05-22T08:59:43.950Z,85.95
2023-05-22T09:00:43.992Z,84.75
2023-05-22T09:01:44.078Z,90.76
2023-05-22T09:02:43.902Z,84.01
2023-05-22T09:03:43.960Z,84.97
2023-05-22T09:04:43.885Z,79.68
2023-05-22T09:05:43.865Z,81.77
2023-05-22T09:06:43.866Z,79.48
2023-05-22T09:07:43.833Z,83.39
2023-05-22T09:08:43.858Z,77.77
2023-05-22T09:09:43.815Z,77.23
2023-05-22T09:10:43.805Z,76.36
2023-05-22T09:11:43.792Z,77.09
2023-05-22T09:12:43.788Z,75.13
2023-05-22T09:13:43.809Z,75.56
2023-05-22T09:14:43.758Z,73.83
2023-05-22T09:15:43.760Z,73.63
2023-05-22T09:16:43.799Z,74.73
2023-05-22T09:17:43.820Z,73.80
2023-05-22T09:18:43.746Z,76.45
2023-05-22T09:19:43.715Z,73.56
2023-05-22T09:20:43.698Z,74.59
2023-05-22T09:21:43.853Z,73.99
2023-05-22T09:22:43.707Z,74.52
2023-05-22T09:23:43.675Z,76.57
2023-05-22T09:24:43.659Z,77.10
2023-05-22T09:25:43.659Z,73.66
2023-05-22T09:26:43.638Z,73.43
2023-05-22T09:27:43.667Z,72.20
2023-05-22T09:28:43.633Z,72.57
2023-05-22T09:29:43.605Z,71.05
2023-05-22T09:30:43.862Z,73.24
2023-05-22T09:31:44.049Z,75.15
2023-05-22T09:32:43.605Z,71.41
2023-05-22T09:33:43.566Z,70.32
2023-05-22T09:34:43.544Z,72.30
2023-05-22T09:35:43.539Z,68.53
2023-05-22T09:36:43.552Z,69.20
2023-05-22T09:37:43.512Z,71.34
2023-05-22T09:38:43.503Z,70.95
2023-05-22T09:39:43.502Z,76.42
2023-05-22T09:40:43.483Z,74.93
2023-05-22T09:41:43.486Z,77.26
2023-05-22T09:42:43.461Z,77.36
2023-05-22T09:43:43.455Z,78.39
2023-05-22T09:44:43.437Z,78.69
2023-05-22T09:45:43.452Z,82.18
2023-05-22T09:46:43.680Z,79.45
2023-05-22T09:47:43.439Z,75.90
2023-05-22T09:48:43.396Z,77.63
2023-05-22T09:49:43.385Z,80.18
2023-05-22T09:50:43.388Z,77.86
2023-05-22T09:51:43.375Z,77.48
2023-05-22T09:52:43.353Z,72.38
2023-05-22T09:53:43.351Z,76.18
2023-05-22T09:54:43.334Z,70.88
2023-05-22T09:55:43.355Z,70.72
2023-05-22T09:56:43.343Z,74.61
2023-05-22T09:57:43.361Z,73.09
2023-05-22T09:58:43.317Z,68.13
2023-05-22T09:59:43.290Z,69.56
2023-05-22T10:00:43.324Z,65.99
2023-05-22T10:01:43.294Z,70.21
2023-05-22T10:02:43.309Z,67.44
2023-05-22T10:03:43.265Z,64.38
2023-05-22T10:04:43.258Z,68.40
2023-05-22T10:05:43.241Z,63.26
2023-05-22T10:06:43.210Z,64.87
2023-05-22T10:07:43.207Z,65.92
2023-05-22T10:08:43.205Z,69.06
2023-05-22T10:09:43.220Z,71.08
2023-05-22T10:10:43.294Z,70.15
2023-05-22T10:11:43.156Z,72.53
2023-05-22T10:12:43.140Z,77.56
2023-05-22T10:13:43.152Z,75.37
2023-05-22T10:14:43.139Z,70.08
2023-05-22T10:15:43.139Z,69.35
2023-05-22T10:16:43.113Z,71.04
2023-05-22T10:17:43.173Z,68.50
2023-05-22T10:18:43.131Z,68.53
2023-05-22T10:19:44.604Z,70.65
2023-05-22T10:20:43.067Z,72.77
2023-05-22T10:21:43.047Z,72.60
2023-05-22T10:22:43.032Z,69.23
2023-05-22T10:23:43.049Z,66.16
2023-05-22T10:24:43.011Z,67.61
2023-05-22T10:25:43.011Z,63.43
2023-05-22T10:26:42.980Z,63.34
2023-05-22T10:27:43.004Z,66.96
2023-05-22T10:28:43.014Z,62.35
2023-05-22T10:29:42.958Z,63.17
2023-05-22T10:30:43.168Z,64.42
2023-05-22T10:31:42.938Z,63.75
2023-05-22T10:32:42.940Z,65.14
2023-05-22T10:33:42.973Z,65.83
2023-05-22T10:34:42.898Z,67.35
2023-05-22T10:35:42.900Z,66.82
2023-05-22T10:36:43.690Z,65.86
2023-05-22T10:37:42.900Z,70.35
2023-05-22T10:38:42.868Z,70.38
2023-05-22T10:39:42.848Z,72.44
2023-05-22T10:40:42.839Z,75.18
2023-05-22T10:41:42.848Z,75.88
2023-05-22T10:42:42.833Z,78.03
2023-05-22T10:43:42.819Z,73.96
2023-05-22T10:44:42.799Z,73.43
2023-05-22T10:45:44.700Z,76.65
2023-05-22T10:46:42.798Z,76.79
2023-05-22T10:47:42.809Z,78.02
2023-05-22T10:48:42.759Z,78.16
2023-05-22T10:49:42.751Z,76.72
2023-05-22T10:50:42.832Z,79.47
2023-05-22T10:51:42.742Z,80.43
2023-05-22T10:52:42.712Z,79.66
2023-05-22T10:53:42.709Z,73.80
2023-05-22T10:54:42.702Z,74.31
2023-05-22T10:55:42.713Z,72.88
2023-05-22T10:56:42.679Z,68.37
2023-05-22T10:57:42.661Z,67.38
2023-05-22T10:58:42.638Z,60.64
2023-05-22T10:59:42.643Z,64.72
2023-05-22T11:00:42.871Z,64.83
2023-05-22T11:01:42.738Z,62.90
2023-05-22T11:02:42.660Z,60.18
2023-05-22T11:03:42.679Z,57.49
2023-05-22T11:04:42.688Z,63.42
2023-05-22T11:05:42.600Z,56.06
2023-05-22T11:06:42.727Z,58.02
2023-05-22T11:07:42.577Z,58.22
2023-05-22T11:08:42.547Z,57.40
2023-05-22T11:09:42.554Z,62.65
2023-05-22T11:10:42.560Z,63.16
2023-05-22T11:11:42.523Z,67.68
2023-05-22T11:12:42.501Z,65.46
2023-05-22T11:13:42.493Z,69.13
2023-05-22T11:14:42.501Z,68.99
2023-05-22T11:15:42.474Z,70.12
2023-05-22T11:16:42.475Z,70.91
2023-05-22T11:17:42.579Z,71.48
2023-05-22T11:18:43.275Z,73.23
2023-05-22T11:19:42.488Z,73.69
2023-05-22T11:20:42.625Z,73.75
2023-05-22T11:21:42.402Z,70.15
2023-05-22T11:22:42.414Z,68.50
2023-05-22T11:23:42.405Z,67.65
2023-05-22T11:24:42.390Z,63.32
2023-05-22T11:25:42.378Z,60.27
2023-05-22T11:26:42.348Z,61.29
2023-05-22T11:27:42.345Z,63.16
2023-05-22T11:28:42.361Z,57.42
2023-05-22T11:29:42.334Z,60.88
2023-05-22T11:30:42.600Z,63.46
2023-05-22T11:31:42.437Z,65.89
2023-05-22T11:32:42.311Z,70.05
2023-05-22T11:33:42.322Z,69.42
2023-05-22T11:34:43.234Z,68.50
2023-05-22T11:35:42.264Z,69.46
2023-05-22T11:36:42.246Z,72.37
2023-05-22T11:37:42.249Z,71.22
2023-05-22T11:38:42.275Z,74.69
2023-05-22T11:39:42.231Z,70.09
2023-05-22T11:40:42.436Z,67.61
2023-05-22T11:41:42.208Z,63.56
2023-05-22T11:42:42.214Z,65.57
2023-05-22T11:43:42.227Z,63.14
2023-05-22T11:44:42.177Z,66.49
2023-05-22T11:45:42.174Z,63.51
2023-05-22T11:46:42.175Z,64.29
2023-05-22T11:47:42.221Z,60.66
2023-05-22T11:48:42.121Z,62.24
2023-05-22T11:49:42.149Z,61.48
2023-05-22T11:50:42.809Z,59.43
2023-05-22T11:51:42.131Z,61.96
2023-05-22T11:52:42.109Z,63.95
2023-05-22T11:53:42.102Z,63.09
2023-05-22T11:54:42.099Z,65.27
2023-05-22T11:55:42.082Z,63.00
2023-05-22T11:56:42.036Z,62.68
2023-05-22T11:57:42.058Z,63.53
2023-05-22T11:58:42.008Z,61.63
2023-05-22T11:59:42.008Z,62.26
2023-05-22T12:00:42.189Z,59.36
2023-05-22T12:01:42.011Z,65.47
2023-05-22T12:02:42.066Z,61.67
2023-05-22T12:03:42.181Z,62.72
2023-05-22T12:04:41.960Z,61.34
2023-05-22T12:05:41.935Z,61.46
2023-05-22T12:06:41.985Z,67.51
2023-05-22T12:07:41.924Z,66.49
2023-05-22T12:08:41.933Z,67.97
2023-05-22T12:09:41.901Z,70.65
2023-05-22T12:10:42.088Z,69.69
2023-05-22T12:11:41.899Z,68.57
2023-05-22T12:12:41.872Z,67.71
2023-05-22T12:13:41.885Z,66.26
2023-05-22T12:14:41.876Z,62.44
2023-05-22T12:15:41.838Z,64.39
2023-05-22T12:16:41.871Z,64.29
2023-05-22T12:17:41.854Z,63.90
2023-05-22T12:18:41.816Z,61.66
2023-05-22T12:19:41.805Z,62.55
2023-05-22T12:20:41.814Z,64.39
2023-05-22T12:21:41.776Z,63.11
2023-05-22T12:22:41.755Z,64.18
2023-05-22T12:23:41.754Z,65.04
2023-05-22T12:24:41.754Z,64.02
2023-05-22T12:25:41.748Z,61.39
2023-05-22T12:26:41.732Z,61.49
2023-05-22T12:27:41.766Z,61.39
2023-05-22T12:28:41.742Z,62.87
2023-05-22T12:29:41.725Z,62.35
2023-05-22T12:30:41.771Z,60.21
2023-05-22T12:31:41.704Z,61.22
2023-05-22T12:32:41.863Z,64.48
2023-05-22T12:33:41.741Z,62.18
2023-05-22T12:34:41.646Z,59.88
2023-05-22T12:35:41.637Z,59.61
2023-05-22T12:36:41.630Z,60.30
2023-05-22T12:37:41.702Z,60.82
2023-05-22T12:38:41.604Z,61.48
2023-05-22T12:39:41.606Z,63.75
2023-05-22T12:40:41.726Z,63.03
2023-05-22T12:41:41.576Z,65.64
2023-05-22T12:42:41.587Z,59.74
2023-05-22T12:43:41.556Z,62.74
2023-05-22T12:44:41.557Z,60.59
2023-05-22T12:45:41.538Z,62.40
2023-05-22T12:46:41.617Z,63.26
2023-05-22T12:47:41.594Z,62.17
2023-05-22T12:48:41.504Z,63.79
2023-05-22T12:49:41.515Z,64.90
2023-05-22T12:50:41.765Z,64.17
2023-05-22T12:51:41.483Z,68.24
2023-05-22T12:52:41.470Z,65.73
2023-05-22T12:53:41.496Z,70.28
2023-05-22T12:54:41.455Z,68.60
2023-05-22T12:55:41.437Z,71.86
2023-05-22T12:56:41.427Z,63.71
2023-05-22T12:57:41.420Z,66.16
2023-05-22T12:58:41.436Z,66.98
2023-05-22T12:59:41.397Z,68.07
2023-05-22T13:00:41.715Z,70.05
2023-05-22T13:01:41.435Z,68.63
2023-05-22T13:02:41.420Z,68.30
2023-05-22T13:03:41.352Z,70.25
2023-05-22T13:04:41.377Z,64.64
2023-05-22T13:05:41.823Z,64.57
2023-05-22T13:06:41.331Z,64.20
2023-05-22T13:07:41.323Z,65.33
2023-05-22T13:08:41.340Z,66.05
2023-05-22T13:09:41.296Z,68.43
2023-05-22T13:10:41.309Z,70.38
2023-05-22T13:11:41.345Z,65.92
2023-05-22T13:12:41.318Z,70.91
2023-05-22T13:13:41.264Z,70.78
2023-05-22T13:14:41.258Z,71.54
2023-05-22T13:15:41.519Z,65.30
2023-05-22T13:16:41.298Z,67.68
2023-05-22T13:17:41.295Z,64.70
2023-05-22T13:18:41.209Z,70.61
2023-05-22T13:19:41.201Z,69.29
2023-05-22T13:20:41.187Z,69.16
2023-05-22T13:21:41.180Z,65.66
2023-05-22T13:22:41.170Z,66.42
2023-05-22T13:23:41.163Z,67.11
2023-05-22T13:24:41.192Z,62.40
2023-05-22T13:25:41.245Z,63.52
2023-05-22T13:26:41.136Z,64.81
2023-05-22T13:27:41.108Z,64.87
2023-05-22T13:28:41.143Z,64.87
2023-05-22T13:29:41.104Z,63.95
2023-05-22T13:30:41.310Z,62.40
2023-05-22T13:31:41.108Z,65.17
2023-05-22T13:32:41.110Z,65.00
2023-05-22T13:33:41.104Z,63.45
2023-05-22T13:34:41.161Z,66.06
2023-05-22T13:35:41.222Z,66.16
2023-05-22T13:36:41.040Z,64.90
2023-05-22T13:37:41.110Z,69.02
2023-05-22T13:38:41.027Z,65.76
2023-05-22T13:39:41.002Z,63.68
2023-05-22T13:40:41.016Z,67.35
2023-05-22T13:41:40.973Z,64.07
2023-05-22T13:42:40.994Z,65.13
2023-05-22T13:43:40.987Z,66.62
2023-05-22T13:44:40.955Z,69.49
2023-05-22T13:45:41.226Z,65.03
2023-05-22T13:46:41.306Z,65.23
2023-05-22T13:47:40.937Z,63.35
2023-05-22T13:48:40.911Z,66.06
2023-05-22T13:49:40.908Z,65.17
2023-05-22T13:50:40.912Z,66.06
2023-05-22T13:51:40.892Z,65.26
2023-05-22T13:52:40.894Z,67.87
2023-05-22T13:53:40.866Z,68.96
2023-05-22T13:54:40.845Z,67.11
2023-05-22T13:55:41.099Z,64.86
2023-05-22T13:56:40.847Z,69.62
2023-05-22T13:57:40.824Z,69.32
2023-05-22T13:58:40.825Z,68.04
2023-05-22T13:59:40.812Z,67.84
2023-05-22T14:00:40.905Z,69.53
2023-05-22T14:01:40.892Z,66.58
2023-05-22T14:02:40.855Z,68.90
2023-05-22T14:03:40.816Z,68.50
2023-05-22T14:04:40.750Z,68.20
2023-05-22T14:05:41.025Z,68.30
2023-05-22T14:06:40.762Z,72.47
2023-05-22T14:07:40.721Z,73.56
2023-05-22T14:08:40.717Z,75.95
2023-05-22T14:09:40.690Z,73.66
2023-05-22T14:10:40.722Z,71.48
2023-05-22T14:11:40.680Z,73.56
2023-05-22T14:12:40.680Z,70.39
2023-05-22T14:13:40.674Z,69.69
2023-05-22T14:14:40.650Z,74.62
2023-05-22T14:15:40.848Z,75.51
2023-05-22T14:16:40.676Z,76.97
2023-05-22T14:17:40.665Z,70.95
2023-05-22T14:18:40.606Z,70.85
2023-05-22T14:19:40.637Z,73.03
2023-05-22T14:20:40.598Z,69.39
2023-05-22T14:21:40.571Z,72.97
2023-05-22T14:22:55.973Z,68.90
2023-05-22T14:23:40.548Z,72.77
2023-05-22T14:24:40.565Z,72.14
2023-05-22T14:25:40.831Z,73.23
2023-05-22T14:26:40.528Z,73.19
2023-05-22T14:27:40.508Z,75.87
2023-05-22T14:28:40.505Z,76.57
2023-05-22T14:29:40.499Z,72.10
2023-05-22T14:30:40.517Z,72.80
2023-05-22T14:31:40.500Z,74.15
2023-05-22T14:32:40.565Z,71.37
2023-05-22T14:33:40.436Z,69.26
2023-05-22T14:34:40.436Z,67.38
2023-05-22T14:35:40.672Z,65.13
2023-05-22T14:36:40.445Z,68.17
2023-05-22T14:37:40.422Z,72.92
2023-05-22T14:38:40.394Z,67.77
2023-05-22T14:39:40.420Z,68.07
2023-05-22T14:40:40.375Z,72.23
2023-05-22T14:41:40.397Z,68.07
2023-05-22T14:42:40.365Z,69.56
2023-05-22T14:43:40.359Z,67.61
2023-05-22T14:44:40.321Z,66.85
2023-05-22T14:45:40.497Z,68.04
2023-05-22T14:46:40.397Z,73.75
2023-05-22T14:47:40.368Z,69.98
2023-05-22T14:48:40.290Z,70.15
2023-05-22T14:49:40.268Z,71.25
2023-05-22T14:50:40.274Z,72.33
2023-05-22T14:51:40.253Z,68.50
2023-05-22T14:52:40.259Z,71.08
2023-05-22T14:53:40.226Z,73.93
2023-05-22T14:54:40.275Z,71.25
2023-05-22T14:55:40.477Z,72.33
2023-05-22T14:56:40.200Z,73.13
2023-05-22T14:57:40.184Z,70.09
2023-05-22T14:58:40.190Z,65.35
2023-05-22T14:59:40.205Z,64.72
2023-05-22T15:00:40.159Z,64.12
2023-05-22T15:01:40.232Z,68.37
2023-05-22T15:02:40.260Z,66.20
2023-05-22T15:03:40.134Z,70.32
2023-05-22T15:04:40.164Z,68.26
2023-05-22T15:05:40.364Z,68.43
2023-05-22T15:06:40.114Z,68.52
2023-05-22T15:07:44.718Z,69.26
2023-05-22T15:08:40.080Z,70.16
2023-05-22T15:09:40.070Z,70.09
2023-05-22T15:10:40.071Z,70.19
2023-05-22T15:11:40.039Z,71.23
2023-05-22T15:12:40.077Z,72.42
2023-05-22T15:13:40.020Z,73.86
2023-05-22T15:14:40.020Z,71.50
2023-05-22T15:15:40.098Z,72.23
2023-05-22T15:16:40.010Z,74.84
2023-05-22T15:17:42.606Z,73.36
2023-05-22T15:18:39.976Z,73.30
2023-05-22T15:19:40.014Z,75.54
2023-05-22T15:20:39.970Z,75.74
2023-05-22T15:21:39.938Z,76.52
2023-05-22T15:22:39.940Z,77.62
2023-05-22T15:23:39.910Z,78.86
2023-05-22T15:24:39.985Z,78.77
2023-05-22T15:25:40.124Z,78.66
2023-05-22T15:26:39.888Z,78.97
2023-05-22T15:27:39.917Z,80.11
2023-05-22T15:28:39.910Z,81.65
2023-05-22T15:29:39.847Z,83.40
2023-05-22T15:30:39.840Z,85.42
2023-05-22T15:31:39.841Z,87.47
2023-05-22T15:32:39.957Z,86.26
2023-05-22T15:33:39.806Z,86.57
2023-05-22T15:34:39.799Z,86.63
2023-05-22T15:35:39.936Z,88.64
2023-05-22T15:36:39.790Z,86.43
2023-05-22T15:37:39.779Z,85.72
2023-05-22T15:38:39.774Z,86.63
2023-05-22T15:39:39.735Z,88.78
2023-05-22T15:40:39.731Z,88.64
2023-05-22T15:41:39.701Z,92.16
2023-05-22T15:42:39.720Z,92.16
2023-05-22T15:43:39.688Z,89.99
2023-05-22T15:44:39.691Z,90.59
2023-05-22T15:45:40.023Z,90.69
2023-05-22T15:46:39.693Z,88.68
2023-05-22T15:47:39.712Z,91.09
2023-05-22T15:48:39.644Z,91.60
2023-05-22T15:49:39.626Z,92.50
2023-05-22T15:50:39.691Z,92.80
2023-05-22T15:51:39.620Z,93.21
2023-05-22T15:52:39.609Z,94.82
2023-05-22T15:53:39.596Z,95.02
2023-05-22T15:54:39.586Z,95.62
2023-05-22T15:55:39.715Z,97.49
2023-05-22T15:56:39.570Z,98.64
2023-05-22T15:57:39.567Z,99.99
2023-05-22T15:58:39.538Z,99.99
2023-05-22T15:59:39.512Z,99.99
2023-05-22T16:00:39.515Z,99.99
2023-05-22T16:01:39.596Z,99.99
2023-05-22T16:02:39.554Z,99.99
2023-05-22T16:03:39.592Z,99.99
2023-05-22T16:04:39.467Z,99.99
2023-05-22T16:05:39.609Z,99.99
2023-05-22T16:06:39.469Z,99.99
2023-05-22T16:07:39.432Z,99.99
2023-05-22T16:08:39.420Z,99.99
2023-05-22T16:09:39.413Z,99.99
2023-05-22T16:10:39.418Z,99.99
2023-05-22T16:11:39.401Z,99.99
2023-05-22T16:12:39.384Z,99.99
2023-05-22T16:13:39.370Z,99.99
2023-05-22T16:14:40.226Z,99.99
2023-05-22T16:15:39.961Z,99.99
2023-05-22T16:16:39.334Z,99.99
2023-05-22T16:17:39.414Z,99.99
2023-05-22T16:18:39.321Z,99.99
2023-05-22T16:19:39.374Z,99.99
2023-05-22T16:20:39.313Z,99.99
2023-05-22T16:21:39.286Z,99.99
2023-05-22T16:22:48.127Z,99.99
2023-05-22T16:23:39.261Z,99.99
2023-05-22T16:24:39.286Z,99.99
2023-05-22T16:25:39.444Z,99.99
2023-05-22T16:26:39.236Z,99.99
2023-05-22T16:27:39.230Z,99.99
2023-05-22T16:28:39.212Z,99.99
2023-05-22T16:29:39.218Z,99.99
2023-05-22T16:30:39.201Z,99.99
2023-05-22T16:31:39.264Z,99.99
2023-05-22T16:32:39.247Z,99.99
2023-05-22T16:33:39.171Z,99.99
2023-05-22T16:34:39.164Z,99.99
2023-05-22T16:35:39.364Z,99.99
2023-05-22T16:36:39.126Z,99.99
2023-05-22T16:37:39.109Z,99.99
2023-05-22T16:38:39.118Z,99.99
2023-05-22T16:39:39.092Z,99.99
2023-05-22T16:40:39.077Z,99.21
2023-05-22T16:41:39.065Z,99.99
2023-05-22T16:42:39.082Z,99.99
2023-05-22T16:43:39.047Z,99.99
2023-05-22T16:44:39.065Z,99.99
2023-05-22T16:45:39.230Z,99.99
2023-05-22T16:46:39.072Z,99.99
2023-05-22T16:47:39.068Z,99.99
2023-05-22T16:48:39.011Z,99.99
2023-05-22T16:49:38.969Z,99.99
2023-05-22T16:50:39.002Z,99.99
2023-05-22T16:51:38.967Z,99.99
2023-05-22T16:52:39.027Z,99.99